sensor_id;sensor_type;location;lat;lon;timestamp;P1;durP1;ratioP1;P2;durP2;ratioP2
71606;SDS011;60641;53.556;9.914;2022-12-29T00:00:52;3.40;;;1.30;;
71606;SDS011;60641;53.556;9.914;2022-12-29T00:03:20;3.30;;;1.00;;
71606;SDS011;60641;53.556;9.914;2022-12-29T00:05:53;5.20;;;1.30;;
71606;SDS011;60641;53.556;9.914;2022-12-29T00:08:20;4.20;;;1.20;;
71606;SDS011;60641;53.556;9.914;2022-12-29T00:11:07;5.10;;;1.30;;
71606;SDS011;60641;53.556;9.914;2022-12-29T00:13:34;3.70;;;1.30;;
71606;SDS011;60641;53.556;9.914;2022-12-29T00:16:19;3.90;;;1.10;;
71606;SDS011;60641;53.556;9.914;2022-12-29T00:18:46;3.50;;;1.30;;
71606;SDS011;60641;53.556;9.914;2022-12-29T00:21:13;5.00;;;1.60;;
71606;SDS011;60641;53.556;9.914;2022-12-29T00:23:59;6.30;;;1.40;;
71606;SDS011;60641;53.556;9.914;2022-12-29T00:26:53;4.30;;;1.50;;
71606;SDS011;60641;53.556;9.914;2022-12-29T00:29:40;5.20;;;1.50;;
71606;SDS011;60641;53.556;9.914;2022-12-29T00:32:25;5.60;;;1.40;;
71606;SDS011;60641;53.556;9.914;2022-12-29T00:35:11;4.00;;;1.40;;
71606;SDS011;60641;53.556;9.914;2022-12-29T00:37:41;4.00;;;1.50;;
71606;SDS011;60641;53.556;9.914;2022-12-29T00:40:27;4.30;;;1.60;;
71606;SDS011;60641;53.556;9.914;2022-12-29T00:43:12;3.10;;;1.30;;
71606;SDS011;60641;53.556;9.914;2022-12-29T00:45:57;4.60;;;1.50;;
71606;SDS011;60641;53.556;9.914;2022-12-29T00:48:24;4.60;;;1.70;;
71606;SDS011;60641;53.556;9.914;2022-12-29T00:51:09;4.60;;;1.50;;
71606;SDS011;60641;53.556;9.914;2022-12-29T00:53:35;3.40;;;1.40;;
71606;SDS011;60641;53.556;9.914;2022-12-29T00:56:02;4.10;;;1.70;;
71606;SDS011;60641;53.556;9.914;2022-12-29T00:58:29;3.50;;;1.40;;
71606;SDS011;60641;53.556;9.914;2022-12-29T01:01:03;4.00;;;1.70;;
71606;SDS011;60641;53.556;9.914;2022-12-29T01:03:30;3.70;;;1.40;;
71606;SDS011;60641;53.556;9.914;2022-12-29T01:05:56;3.50;;;1.50;;
71606;SDS011;60641;53.556;9.914;2022-12-29T01:08:27;4.00;;;1.50;;
71606;SDS011;60641;53.556;9.914;2022-12-29T01:11:01;3.70;;;1.30;;
71606;SDS011;60641;53.556;9.914;2022-12-29T01:13:31;5.70;;;1.50;;
71606;SDS011;60641;53.556;9.914;2022-12-29T01:15:58;4.50;;;1.30;;
71606;SDS011;60641;53.556;9.914;2022-12-29T01:18:25;5.10;;;1.30;;
71606;SDS011;60641;53.556;9.914;2022-12-29T01:20:57;4.00;;;1.40;;
71606;SDS011;60641;53.556;9.914;2022-12-29T01:23:25;4.40;;;1.50;;
71606;SDS011;60641;53.556;9.914;2022-12-29T01:25:51;3.40;;;1.20;;
71606;SDS011;60641;53.556;9.914;2022-12-29T01:28:18;5.80;;;1.50;;
71606;SDS011;60641;53.556;9.914;2022-12-29T01:30:44;3.50;;;1.40;;
71606;SDS011;60641;53.556;9.914;2022-12-29T01:33:10;3.50;;;1.30;;
71606;SDS011;60641;53.556;9.914;2022-12-29T01:35:37;3.50;;;1.50;;
71606;SDS011;60641;53.556;9.914;2022-12-29T01:38:03;5.70;;;1.50;;
71606;SDS011;60641;53.556;9.914;2022-12-29T01:40:30;3.60;;;1.40;;
71606;SDS011;60641;53.556;9.914;2022-12-29T01:42:56;5.00;;;1.60;;
71606;SDS011;60641;53.556;9.914;2022-12-29T01:45:23;4.50;;;1.70;;
71606;SDS011;60641;53.556;9.914;2022-12-29T01:47:57;4.60;;;1.60;;
71606;SDS011;60641;53.556;9.914;2022-12-29T01:50:32;4.20;;;1.60;;
71606;SDS011;60641;53.556;9.914;2022-12-29T01:53:02;5.20;;;1.50;;
71606;SDS011;60641;53.556;9.914;2022-12-29T01:55:33;5.30;;;1.80;;
71606;SDS011;60641;53.556;9.914;2022-12-29T01:58:03;3.80;;;1.40;;
71606;SDS011;60641;53.556;9.914;2022-12-29T02:00:30;5.30;;;2.10;;
71606;SDS011;60641;53.556;9.914;2022-12-29T02:02:57;4.00;;;1.60;;
71606;SDS011;60641;53.556;9.914;2022-12-29T02:08:05;4.00;;;1.50;;
71606;SDS011;60641;53.556;9.914;2022-12-29T02:10:32;4.20;;;1.70;;
71606;SDS011;60641;53.556;9.914;2022-12-29T02:13:00;3.90;;;1.80;;
71606;SDS011;60641;53.556;9.914;2022-12-29T02:15:34;4.50;;;1.70;;
71606;SDS011;60641;53.556;9.914;2022-12-29T02:43:38;3.90;;;1.80;;
71606;SDS011;60641;53.556;9.914;2022-12-29T02:51:44;4.20;;;1.70;;
71606;SDS011;60641;53.556;9.914;2022-12-29T02:54:17;4.30;;;1.60;;
71606;SDS011;60641;53.556;9.914;2022-12-29T02:57:05;8.00;;;2.10;;
71606;SDS011;60641;53.556;9.914;2022-12-29T02:59:38;8.80;;;2.40;;
71606;SDS011;60641;53.556;9.914;2022-12-29T03:16:07;9.60;;;2.80;;
71606;SDS011;60641;53.556;9.914;2022-12-29T03:18:44;8.30;;;1.80;;
71606;SDS011;60641;53.556;9.914;2022-12-29T03:24:22;6.80;;;2.30;;
71606;SDS011;60641;53.556;9.914;2022-12-29T03:26:52;7.50;;;1.90;;
71606;SDS011;60641;53.556;9.914;2022-12-29T03:29:21;6.60;;;2.20;;
71606;SDS011;60641;53.556;9.914;2022-12-29T03:31:48;7.30;;;2.20;;
71606;SDS011;60641;53.556;9.914;2022-12-29T03:34:16;7.70;;;1.90;;
71606;SDS011;60641;53.556;9.914;2022-12-29T03:36:54;6.90;;;2.50;;
71606;SDS011;60641;53.556;9.914;2022-12-29T03:39:25;6.30;;;2.30;;
71606;SDS011;60641;53.556;9.914;2022-12-29T03:41:58;8.70;;;2.50;;
71606;SDS011;60641;53.556;9.914;2022-12-29T03:44:35;7.90;;;2.70;;
71606;SDS011;60641;53.556;9.914;2022-12-29T03:47:03;7.70;;;2.10;;
71606;SDS011;60641;53.556;9.914;2022-12-29T03:49:29;8.00;;;2.40;;
71606;SDS011;60641;53.556;9.914;2022-12-29T03:51:56;6.60;;;1.70;;
71606;SDS011;60641;53.556;9.914;2022-12-29T03:54:23;6.70;;;1.80;;
71606;SDS011;60641;53.556;9.914;2022-12-29T03:56:49;4.00;;;1.50;;
71606;SDS011;60641;53.556;9.914;2022-12-29T03:59:16;4.00;;;1.20;;
71606;SDS011;60641;53.556;9.914;2022-12-29T04:01:42;4.30;;;1.30;;
71606;SDS011;60641;53.556;9.914;2022-12-29T04:04:09;4.90;;;1.40;;
71606;SDS011;60641;53.556;9.914;2022-12-29T04:06:35;3.30;;;1.10;;
71606;SDS011;60641;53.556;9.914;2022-12-29T04:09:01;5.40;;;1.20;;
71606;SDS011;60641;53.556;9.914;2022-12-29T04:11:28;4.60;;;1.20;;
71606;SDS011;60641;53.556;9.914;2022-12-29T04:13:54;3.80;;;1.20;;
71606;SDS011;60641;53.556;9.914;2022-12-29T04:16:21;3.50;;;1.00;;
71606;SDS011;60641;53.556;9.914;2022-12-29T04:18:47;4.10;;;1.20;;
71606;SDS011;60641;53.556;9.914;2022-12-29T04:21:14;3.60;;;1.00;;
71606;SDS011;60641;53.556;9.914;2022-12-29T04:23:40;3.50;;;1.10;;
71606;SDS011;60641;53.556;9.914;2022-12-29T04:26:07;4.60;;;1.10;;
71606;SDS011;60641;53.556;9.914;2022-12-29T04:28:35;3.30;;;1.10;;
71606;SDS011;60641;53.556;9.914;2022-12-29T04:31:02;3.50;;;0.90;;
71606;SDS011;60641;53.556;9.914;2022-12-29T04:33:29;5.00;;;1.00;;
71606;SDS011;60641;53.556;9.914;2022-12-29T04:35:56;3.30;;;1.00;;
71606;SDS011;60641;53.556;9.914;2022-12-29T04:38:23;3.40;;;0.90;;
71606;SDS011;60641;53.556;9.914;2022-12-29T04:40:50;5.00;;;1.50;;
71606;SDS011;60641;53.556;9.914;2022-12-29T04:43:17;5.00;;;1.30;;
71606;SDS011;60641;53.556;9.914;2022-12-29T04:45:45;6.00;;;1.10;;
71606;SDS011;60641;53.556;9.914;2022-12-29T04:48:12;3.10;;;1.00;;
71606;SDS011;60641;53.556;9.914;2022-12-29T04:50:39;3.60;;;0.90;;
71606;SDS011;60641;53.556;9.914;2022-12-29T04:53:06;4.20;;;0.90;;
71606;SDS011;60641;53.556;9.914;2022-12-29T04:55:33;3.60;;;1.10;;
71606;SDS011;60641;53.556;9.914;2022-12-29T04:58:00;3.70;;;0.90;;
71606;SDS011;60641;53.556;9.914;2022-12-29T05:00:26;2.30;;;0.80;;
71606;SDS011;60641;53.556;9.914;2022-12-29T05:02:52;3.00;;;1.00;;
71606;SDS011;60641;53.556;9.914;2022-12-29T05:05:19;1.40;;;0.50;;
71606;SDS011;60641;53.556;9.914;2022-12-29T05:07:45;1.70;;;0.50;;
71606;SDS011;60641;53.556;9.914;2022-12-29T05:10:12;1.80;;;0.60;;
71606;SDS011;60641;53.556;9.914;2022-12-29T05:12:38;1.60;;;0.50;;
71606;SDS011;60641;53.556;9.914;2022-12-29T05:15:05;1.70;;;0.70;;
71606;SDS011;60641;53.556;9.914;2022-12-29T05:17:33;2.20;;;0.80;;
71606;SDS011;60641;53.556;9.914;2022-12-29T05:19:59;2.20;;;0.70;;
71606;SDS011;60641;53.556;9.914;2022-12-29T05:22:26;1.40;;;0.50;;
71606;SDS011;60641;53.556;9.914;2022-12-29T05:24:53;2.60;;;0.70;;
71606;SDS011;60641;53.556;9.914;2022-12-29T05:27:19;1.60;;;0.70;;
71606;SDS011;60641;53.556;9.914;2022-12-29T05:29:46;2.30;;;0.60;;
71606;SDS011;60641;53.556;9.914;2022-12-29T05:32:13;2.10;;;0.70;;
71606;SDS011;60641;53.556;9.914;2022-12-29T05:34:39;1.70;;;0.70;;
71606;SDS011;60641;53.556;9.914;2022-12-29T05:37:06;1.70;;;0.60;;
71606;SDS011;60641;53.556;9.914;2022-12-29T05:39:32;1.60;;;0.80;;
71606;SDS011;60641;53.556;9.914;2022-12-29T05:41:59;2.80;;;0.90;;
71606;SDS011;60641;53.556;9.914;2022-12-29T05:44:25;2.00;;;0.70;;
71606;SDS011;60641;53.556;9.914;2022-12-29T05:46:52;1.40;;;0.50;;
71606;SDS011;60641;53.556;9.914;2022-12-29T05:49:18;2.10;;;0.60;;
71606;SDS011;60641;53.556;9.914;2022-12-29T05:51:45;2.50;;;0.70;;
71606;SDS011;60641;53.556;9.914;2022-12-29T05:54:11;1.60;;;0.70;;
71606;SDS011;60641;53.556;9.914;2022-12-29T05:56:38;2.10;;;0.60;;
71606;SDS011;60641;53.556;9.914;2022-12-29T05:59:04;1.40;;;0.50;;
71606;SDS011;60641;53.556;9.914;2022-12-29T06:01:31;3.50;;;0.60;;
71606;SDS011;60641;53.556;9.914;2022-12-29T06:03:59;1.80;;;0.50;;
71606;SDS011;60641;53.556;9.914;2022-12-29T06:06:26;1.40;;;0.60;;
71606;SDS011;60641;53.556;9.914;2022-12-29T06:08:53;2.10;;;0.60;;
71606;SDS011;60641;53.556;9.914;2022-12-29T06:11:19;2.40;;;0.50;;
71606;SDS011;60641;53.556;9.914;2022-12-29T06:13:45;4.70;;;1.10;;
71606;SDS011;60641;53.556;9.914;2022-12-29T06:16:12;2.70;;;0.90;;
71606;SDS011;60641;53.556;9.914;2022-12-29T06:18:38;1.50;;;0.50;;
71606;SDS011;60641;53.556;9.914;2022-12-29T06:21:05;1.60;;;0.60;;
71606;SDS011;60641;53.556;9.914;2022-12-29T06:23:31;1.60;;;0.50;;
71606;SDS011;60641;53.556;9.914;2022-12-29T06:25:58;2.90;;;0.50;;
71606;SDS011;60641;53.556;9.914;2022-12-29T06:28:25;2.10;;;0.50;;
71606;SDS011;60641;53.556;9.914;2022-12-29T06:30:51;2.40;;;0.60;;
71606;SDS011;60641;53.556;9.914;2022-12-29T06:33:18;2.40;;;0.60;;
71606;SDS011;60641;53.556;9.914;2022-12-29T06:35:44;1.10;;;0.40;;
71606;SDS011;60641;53.556;9.914;2022-12-29T06:38:12;1.90;;;0.50;;
71606;SDS011;60641;53.556;9.914;2022-12-29T06:40:38;1.40;;;0.50;;
71606;SDS011;60641;53.556;9.914;2022-12-29T06:43:05;1.20;;;0.50;;
71606;SDS011;60641;53.556;9.914;2022-12-29T06:45:32;1.90;;;0.60;;
71606;SDS011;60641;53.556;9.914;2022-12-29T06:47:58;1.20;;;0.50;;
71606;SDS011;60641;53.556;9.914;2022-12-29T06:50:24;1.60;;;0.60;;
71606;SDS011;60641;53.556;9.914;2022-12-29T06:52:51;1.70;;;0.60;;
71606;SDS011;60641;53.556;9.914;2022-12-29T06:55:17;1.50;;;0.50;;
71606;SDS011;60641;53.556;9.914;2022-12-29T06:57:44;1.80;;;0.50;;
71606;SDS011;60641;53.556;9.914;2022-12-29T07:00:10;3.00;;;0.60;;
71606;SDS011;60641;53.556;9.914;2022-12-29T07:02:37;2.50;;;0.40;;
71606;SDS011;60641;53.556;9.914;2022-12-29T07:05:04;1.20;;;0.40;;
71606;SDS011;60641;53.556;9.914;2022-12-29T07:07:30;1.80;;;0.50;;
71606;SDS011;60641;53.556;9.914;2022-12-29T07:09:57;0.50;;;0.30;;
71606;SDS011;60641;53.556;9.914;2022-12-29T07:12:23;2.40;;;0.50;;
71606;SDS011;60641;53.556;9.914;2022-12-29T07:14:50;1.40;;;0.50;;
71606;SDS011;60641;53.556;9.914;2022-12-29T07:17:16;1.50;;;0.60;;
71606;SDS011;60641;53.556;9.914;2022-12-29T07:19:42;3.10;;;0.70;;
71606;SDS011;60641;53.556;9.914;2022-12-29T07:22:10;1.00;;;0.50;;
71606;SDS011;60641;53.556;9.914;2022-12-29T07:24:36;1.20;;;0.40;;
71606;SDS011;60641;53.556;9.914;2022-12-29T07:27:03;1.50;;;0.50;;
71606;SDS011;60641;53.556;9.914;2022-12-29T07:29:30;2.60;;;0.60;;
71606;SDS011;60641;53.556;9.914;2022-12-29T07:31:56;1.90;;;0.60;;
71606;SDS011;60641;53.556;9.914;2022-12-29T07:34:23;2.80;;;0.50;;
71606;SDS011;60641;53.556;9.914;2022-12-29T07:36:49;2.20;;;0.60;;
71606;SDS011;60641;53.556;9.914;2022-12-29T07:39:16;2.40;;;0.60;;
71606;SDS011;60641;53.556;9.914;2022-12-29T07:41:42;1.30;;;0.50;;
71606;SDS011;60641;53.556;9.914;2022-12-29T07:44:09;4.20;;;1.00;;
71606;SDS011;60641;53.556;9.914;2022-12-29T07:46:35;5.30;;;1.30;;
71606;SDS011;60641;53.556;9.914;2022-12-29T07:49:02;2.80;;;0.70;;
71606;SDS011;60641;53.556;9.914;2022-12-29T07:51:28;1.70;;;0.70;;
71606;SDS011;60641;53.556;9.914;2022-12-29T07:53:55;3.10;;;0.70;;
71606;SDS011;60641;53.556;9.914;2022-12-29T07:56:21;3.50;;;0.90;;
71606;SDS011;60641;53.556;9.914;2022-12-29T07:58:47;2.20;;;0.90;;
71606;SDS011;60641;53.556;9.914;2022-12-29T08:01:14;2.80;;;0.60;;
71606;SDS011;60641;53.556;9.914;2022-12-29T08:03:40;2.40;;;0.60;;
71606;SDS011;60641;53.556;9.914;2022-12-29T08:06:10;1.20;;;0.50;;
71606;SDS011;60641;53.556;9.914;2022-12-29T08:08:37;1.30;;;0.40;;
71606;SDS011;60641;53.556;9.914;2022-12-29T08:11:04;2.50;;;0.50;;
71606;SDS011;60641;53.556;9.914;2022-12-29T08:13:30;2.50;;;0.40;;
71606;SDS011;60641;53.556;9.914;2022-12-29T08:15:57;2.90;;;0.50;;
71606;SDS011;60641;53.556;9.914;2022-12-29T08:18:24;1.10;;;0.40;;
71606;SDS011;60641;53.556;9.914;2022-12-29T08:20:51;1.30;;;0.50;;
71606;SDS011;60641;53.556;9.914;2022-12-29T08:23:18;1.50;;;0.50;;
71606;SDS011;60641;53.556;9.914;2022-12-29T08:25:44;4.30;;;0.80;;
71606;SDS011;60641;53.556;9.914;2022-12-29T08:28:11;2.80;;;0.60;;
71606;SDS011;60641;53.556;9.914;2022-12-29T08:30:38;2.60;;;0.50;;
71606;SDS011;60641;53.556;9.914;2022-12-29T08:33:05;2.30;;;0.60;;
71606;SDS011;60641;53.556;9.914;2022-12-29T08:35:31;3.50;;;0.70;;
71606;SDS011;60641;53.556;9.914;2022-12-29T08:37:58;2.80;;;0.70;;
71606;SDS011;60641;53.556;9.914;2022-12-29T08:40:24;2.70;;;0.60;;
71606;SDS011;60641;53.556;9.914;2022-12-29T08:42:51;3.10;;;0.50;;
71606;SDS011;60641;53.556;9.914;2022-12-29T08:45:17;2.40;;;0.50;;
71606;SDS011;60641;53.556;9.914;2022-12-29T08:47:44;7.80;;;2.50;;
71606;SDS011;60641;53.556;9.914;2022-12-29T08:50:10;4.10;;;1.10;;
71606;SDS011;60641;53.556;9.914;2022-12-29T08:52:37;3.50;;;1.00;;
71606;SDS011;60641;53.556;9.914;2022-12-29T08:55:04;3.00;;;0.50;;
71606;SDS011;60641;53.556;9.914;2022-12-29T08:57:31;4.20;;;0.70;;
71606;SDS011;60641;53.556;9.914;2022-12-29T08:59:58;4.00;;;0.60;;
71606;SDS011;60641;53.556;9.914;2022-12-29T09:02:24;4.40;;;0.50;;
71606;SDS011;60641;53.556;9.914;2022-12-29T09:04:51;3.60;;;0.80;;
71606;SDS011;60641;53.556;9.914;2022-12-29T09:07:18;5.20;;;1.20;;
71606;SDS011;60641;53.556;9.914;2022-12-29T09:09:44;3.50;;;0.80;;
71606;SDS011;60641;53.556;9.914;2022-12-29T09:12:11;4.30;;;0.70;;
71606;SDS011;60641;53.556;9.914;2022-12-29T09:14:37;1.60;;;0.40;;
71606;SDS011;60641;53.556;9.914;2022-12-29T09:17:04;2.90;;;0.50;;
71606;SDS011;60641;53.556;9.914;2022-12-29T09:19:49;1.80;;;0.50;;
71606;SDS011;60641;53.556;9.914;2022-12-29T09:22:15;6.60;;;1.30;;
71606;SDS011;60641;53.556;9.914;2022-12-29T09:24:41;2.60;;;0.60;;
71606;SDS011;60641;53.556;9.914;2022-12-29T09:27:08;4.00;;;0.60;;
71606;SDS011;60641;53.556;9.914;2022-12-29T09:29:34;4.40;;;0.70;;
71606;SDS011;60641;53.556;9.914;2022-12-29T09:32:01;5.20;;;0.60;;
71606;SDS011;60641;53.556;9.914;2022-12-29T09:34:28;4.90;;;0.60;;
71606;SDS011;60641;53.556;9.914;2022-12-29T09:36:54;3.50;;;0.70;;
71606;SDS011;60641;53.556;9.914;2022-12-29T09:39:22;4.90;;;0.60;;
71606;SDS011;60641;53.556;9.914;2022-12-29T09:41:58;4.10;;;0.60;;
71606;SDS011;60641;53.556;9.914;2022-12-29T09:44:31;3.50;;;0.50;;
71606;SDS011;60641;53.556;9.914;2022-12-29T09:47:23;7.20;;;0.70;;
71606;SDS011;60641;53.556;9.914;2022-12-29T09:49:54;4.30;;;0.60;;
71606;SDS011;60641;53.556;9.914;2022-12-29T09:52:25;4.50;;;0.90;;
71606;SDS011;60641;53.556;9.914;2022-12-29T09:55:01;12.20;;;0.90;;
71606;SDS011;60641;53.556;9.914;2022-12-29T10:00:14;4.10;;;0.60;;
71606;SDS011;60641;53.556;9.914;2022-12-29T10:02:43;3.60;;;0.60;;
71606;SDS011;60641;53.556;9.914;2022-12-29T10:07:57;3.50;;;0.60;;
71606;SDS011;60641;53.556;9.914;2022-12-29T10:10:35;4.80;;;0.60;;
71606;SDS011;60641;53.556;9.914;2022-12-29T10:16:22;5.80;;;0.70;;
71606;SDS011;60641;53.556;9.914;2022-12-29T10:19:02;1.90;;;0.40;;
71606;SDS011;60641;53.556;9.914;2022-12-29T10:24:06;3.70;;;0.60;;
71606;SDS011;60641;53.556;9.914;2022-12-29T10:26:36;4.20;;;0.60;;
71606;SDS011;60641;53.556;9.914;2022-12-29T10:29:06;5.20;;;0.50;;
71606;SDS011;60641;53.556;9.914;2022-12-29T10:31:41;5.00;;;0.60;;
71606;SDS011;60641;53.556;9.914;2022-12-29T10:34:14;3.30;;;0.50;;
71606;SDS011;60641;53.556;9.914;2022-12-29T10:36:47;6.00;;;0.70;;
71606;SDS011;60641;53.556;9.914;2022-12-29T10:39:18;3.90;;;0.60;;
71606;SDS011;60641;53.556;9.914;2022-12-29T10:41:50;6.20;;;1.00;;
71606;SDS011;60641;53.556;9.914;2022-12-29T10:44:19;6.70;;;0.70;;
71606;SDS011;60641;53.556;9.914;2022-12-29T10:46:51;4.90;;;0.70;;
71606;SDS011;60641;53.556;9.914;2022-12-29T10:49:27;5.00;;;0.80;;
71606;SDS011;60641;53.556;9.914;2022-12-29T10:51:55;5.00;;;0.60;;
71606;SDS011;60641;53.556;9.914;2022-12-29T10:54:32;7.70;;;0.90;;
71606;SDS011;60641;53.556;9.914;2022-12-29T10:57:05;4.30;;;0.90;;
71606;SDS011;60641;53.556;9.914;2022-12-29T10:59:36;5.50;;;0.70;;
71606;SDS011;60641;53.556;9.914;2022-12-29T11:07:21;6.00;;;0.90;;
71606;SDS011;60641;53.556;9.914;2022-12-29T11:09:48;5.80;;;0.60;;
71606;SDS011;60641;53.556;9.914;2022-12-29T11:17:47;3.80;;;0.70;;
71606;SDS011;60641;53.556;9.914;2022-12-29T11:23:01;4.30;;;0.50;;
71606;SDS011;60641;53.556;9.914;2022-12-29T11:25:29;4.60;;;0.80;;
71606;SDS011;60641;53.556;9.914;2022-12-29T11:30:31;3.80;;;0.60;;
71606;SDS011;60641;53.556;9.914;2022-12-29T11:32:58;6.00;;;0.80;;
71606;SDS011;60641;53.556;9.914;2022-12-29T11:35:39;2.90;;;0.50;;
71606;SDS011;60641;53.556;9.914;2022-12-29T11:38:15;3.40;;;0.50;;
71606;SDS011;60641;53.556;9.914;2022-12-29T11:40:47;4.90;;;0.60;;
71606;SDS011;60641;53.556;9.914;2022-12-29T11:43:24;4.50;;;0.70;;
71606;SDS011;60641;53.556;9.914;2022-12-29T11:45:56;4.50;;;0.60;;
71606;SDS011;60641;53.556;9.914;2022-12-29T11:48:22;3.10;;;0.60;;
71606;SDS011;60641;53.556;9.914;2022-12-29T11:50:51;2.50;;;0.40;;
71606;SDS011;60641;53.556;9.914;2022-12-29T11:56:14;3.00;;;0.60;;
71606;SDS011;60641;53.556;9.914;2022-12-29T11:58:42;5.20;;;0.70;;
71606;SDS011;60641;53.556;9.914;2022-12-29T12:03:47;4.30;;;0.50;;
71606;SDS011;60641;53.556;9.914;2022-12-29T12:06:22;4.10;;;0.80;;
71606;SDS011;60641;53.556;9.914;2022-12-29T12:08:54;4.00;;;0.40;;
71606;SDS011;60641;53.556;9.914;2022-12-29T12:11:26;3.70;;;0.50;;
71606;SDS011;60641;53.556;9.914;2022-12-29T12:14:04;3.60;;;0.70;;
71606;SDS011;60641;53.556;9.914;2022-12-29T12:16:34;4.90;;;0.70;;
71606;SDS011;60641;53.556;9.914;2022-12-29T12:19:13;3.60;;;0.50;;
71606;SDS011;60641;53.556;9.914;2022-12-29T12:21:41;5.80;;;0.80;;
71606;SDS011;60641;53.556;9.914;2022-12-29T12:24:15;5.60;;;0.60;;
71606;SDS011;60641;53.556;9.914;2022-12-29T12:32:22;3.50;;;0.40;;
71606;SDS011;60641;53.556;9.914;2022-12-29T12:34:52;5.90;;;0.50;;
71606;SDS011;60641;53.556;9.914;2022-12-29T12:37:23;4.50;;;0.60;;
71606;SDS011;60641;53.556;9.914;2022-12-29T12:40:18;5.60;;;0.80;;
71606;SDS011;60641;53.556;9.914;2022-12-29T12:48:21;5.20;;;0.70;;
71606;SDS011;60641;53.556;9.914;2022-12-29T12:56:27;6.30;;;1.00;;
71606;SDS011;60641;53.556;9.914;2022-12-29T13:07:24;5.80;;;0.70;;
71606;SDS011;60641;53.556;9.914;2022-12-29T13:20:53;6.40;;;0.70;;
71606;SDS011;60641;53.556;9.914;2022-12-29T13:26:11;4.90;;;0.60;;
71606;SDS011;60641;53.556;9.914;2022-12-29T13:31:15;5.70;;;0.70;;
71606;SDS011;60641;53.556;9.914;2022-12-29T13:34:02;4.50;;;0.70;;
71606;SDS011;60641;53.556;9.914;2022-12-29T13:36:48;4.30;;;0.60;;
71606;SDS011;60641;53.556;9.914;2022-12-29T13:39:23;7.20;;;0.80;;
71606;SDS011;60641;53.556;9.914;2022-12-29T13:41:51;5.70;;;0.60;;
71606;SDS011;60641;53.556;9.914;2022-12-29T13:46:53;5.60;;;0.80;;
71606;SDS011;60641;53.556;9.914;2022-12-29T13:49:21;3.80;;;0.70;;
71606;SDS011;60641;53.556;9.914;2022-12-29T13:51:51;6.30;;;1.00;;
71606;SDS011;60641;53.556;9.914;2022-12-29T13:57:12;7.10;;;0.80;;
71606;SDS011;60641;53.556;9.914;2022-12-29T13:59:52;4.60;;;0.50;;
71606;SDS011;60641;53.556;9.914;2022-12-29T14:02:28;4.30;;;0.60;;
71606;SDS011;60641;53.556;9.914;2022-12-29T14:05:02;6.90;;;0.80;;
71606;SDS011;60641;53.556;9.914;2022-12-29T14:07:36;4.60;;;0.70;;
71606;SDS011;60641;53.556;9.914;2022-12-29T14:10:04;8.40;;;0.60;;
71606;SDS011;60641;53.556;9.914;2022-12-29T14:12:40;9.20;;;0.60;;
71606;SDS011;60641;53.556;9.914;2022-12-29T14:17:35;5.90;;;0.60;;
71606;SDS011;60641;53.556;9.914;2022-12-29T14:20:02;2.90;;;0.50;;
71606;SDS011;60641;53.556;9.914;2022-12-29T14:22:30;5.90;;;0.60;;
71606;SDS011;60641;53.556;9.914;2022-12-29T14:24:56;4.90;;;0.70;;
71606;SDS011;60641;53.556;9.914;2022-12-29T14:29:55;3.90;;;0.50;;
71606;SDS011;60641;53.556;9.914;2022-12-29T14:40:05;5.70;;;0.60;;
71606;SDS011;60641;53.556;9.914;2022-12-29T14:42:35;4.90;;;0.50;;
71606;SDS011;60641;53.556;9.914;2022-12-29T14:45:07;2.70;;;0.50;;
71606;SDS011;60641;53.556;9.914;2022-12-29T14:47:54;3.70;;;0.50;;
71606;SDS011;60641;53.556;9.914;2022-12-29T14:50:38;4.80;;;0.80;;
71606;SDS011;60641;53.556;9.914;2022-12-29T14:56:10;2.70;;;0.40;;
71606;SDS011;60641;53.556;9.914;2022-12-29T14:58:44;4.40;;;0.60;;
71606;SDS011;60641;53.556;9.914;2022-12-29T15:01:18;4.70;;;0.70;;
71606;SDS011;60641;53.556;9.914;2022-12-29T15:03:48;4.00;;;0.60;;
71606;SDS011;60641;53.556;9.914;2022-12-29T15:06:18;4.30;;;0.50;;
71606;SDS011;60641;53.556;9.914;2022-12-29T15:11:24;6.10;;;0.70;;
71606;SDS011;60641;53.556;9.914;2022-12-29T15:13:57;5.70;;;0.60;;
71606;SDS011;60641;53.556;9.914;2022-12-29T15:16:25;6.60;;;1.00;;
71606;SDS011;60641;53.556;9.914;2022-12-29T15:18:55;6.20;;;1.50;;
71606;SDS011;60641;53.556;9.914;2022-12-29T15:21:24;5.50;;;1.20;;
71606;SDS011;60641;53.556;9.914;2022-12-29T15:23:54;5.30;;;1.00;;
71606;SDS011;60641;53.556;9.914;2022-12-29T15:26:21;4.50;;;0.80;;
71606;SDS011;60641;53.556;9.914;2022-12-29T15:28:49;5.40;;;1.00;;
71606;SDS011;60641;53.556;9.914;2022-12-29T15:31:21;8.50;;;1.70;;
71606;SDS011;60641;53.556;9.914;2022-12-29T15:33:53;6.80;;;1.50;;
71606;SDS011;60641;53.556;9.914;2022-12-29T15:36:22;5.40;;;1.50;;
71606;SDS011;60641;53.556;9.914;2022-12-29T15:38:50;6.20;;;1.00;;
71606;SDS011;60641;53.556;9.914;2022-12-29T15:43:59;6.30;;;1.10;;
71606;SDS011;60641;53.556;9.914;2022-12-29T15:46:29;4.50;;;0.80;;
71606;SDS011;60641;53.556;9.914;2022-12-29T15:48:56;6.60;;;0.90;;
71606;SDS011;60641;53.556;9.914;2022-12-29T15:51:27;8.00;;;1.20;;
71606;SDS011;60641;53.556;9.914;2022-12-29T15:53:56;5.30;;;1.00;;
71606;SDS011;60641;53.556;9.914;2022-12-29T15:56:23;5.20;;;0.80;;
71606;SDS011;60641;53.556;9.914;2022-12-29T15:58:50;4.60;;;0.80;;
71606;SDS011;60641;53.556;9.914;2022-12-29T16:01:19;6.30;;;0.90;;
71606;SDS011;60641;53.556;9.914;2022-12-29T16:03:56;5.80;;;1.10;;
71606;SDS011;60641;53.556;9.914;2022-12-29T16:08:59;6.70;;;1.10;;
71606;SDS011;60641;53.556;9.914;2022-12-29T16:11:36;6.10;;;1.20;;
71606;SDS011;60641;53.556;9.914;2022-12-29T16:14:08;5.20;;;1.20;;
71606;SDS011;60641;53.556;9.914;2022-12-29T16:16:37;9.10;;;1.30;;
71606;SDS011;60641;53.556;9.914;2022-12-29T16:19:11;7.50;;;1.40;;
71606;SDS011;60641;53.556;9.914;2022-12-29T16:21:40;7.50;;;1.20;;
71606;SDS011;60641;53.556;9.914;2022-12-29T16:24:11;7.50;;;1.20;;
71606;SDS011;60641;53.556;9.914;2022-12-29T16:26:44;7.90;;;1.10;;
71606;SDS011;60641;53.556;9.914;2022-12-29T16:29:13;7.00;;;0.90;;
71606;SDS011;60641;53.556;9.914;2022-12-29T16:39:50;7.40;;;1.00;;
71606;SDS011;60641;53.556;9.914;2022-12-29T16:42:35;5.50;;;1.00;;
71606;SDS011;60641;53.556;9.914;2022-12-29T16:47:46;6.20;;;1.30;;
71606;SDS011;60641;53.556;9.914;2022-12-29T16:50:16;5.80;;;0.90;;
71606;SDS011;60641;53.556;9.914;2022-12-29T16:52:50;7.60;;;1.30;;
71606;SDS011;60641;53.556;9.914;2022-12-29T16:55:17;5.80;;;1.00;;
71606;SDS011;60641;53.556;9.914;2022-12-29T16:57:45;5.80;;;1.10;;
71606;SDS011;60641;53.556;9.914;2022-12-29T17:00:23;6.50;;;1.30;;
71606;SDS011;60641;53.556;9.914;2022-12-29T17:02:52;9.10;;;1.30;;
71606;SDS011;60641;53.556;9.914;2022-12-29T17:05:21;10.70;;;1.30;;
71606;SDS011;60641;53.556;9.914;2022-12-29T17:07:48;7.60;;;1.40;;
71606;SDS011;60641;53.556;9.914;2022-12-29T17:10:14;8.20;;;1.30;;
71606;SDS011;60641;53.556;9.914;2022-12-29T17:12:42;6.90;;;1.10;;
71606;SDS011;60641;53.556;9.914;2022-12-29T17:15:25;7.00;;;1.00;;
71606;SDS011;60641;53.556;9.914;2022-12-29T17:17:53;9.40;;;1.40;;
71606;SDS011;60641;53.556;9.914;2022-12-29T17:20:25;8.20;;;1.70;;
71606;SDS011;60641;53.556;9.914;2022-12-29T17:22:54;6.90;;;1.10;;
71606;SDS011;60641;53.556;9.914;2022-12-29T17:27:59;6.80;;;1.20;;
71606;SDS011;60641;53.556;9.914;2022-12-29T17:30:27;8.70;;;1.60;;
71606;SDS011;60641;53.556;9.914;2022-12-29T17:33:04;7.20;;;1.80;;
71606;SDS011;60641;53.556;9.914;2022-12-29T17:35:34;9.30;;;1.80;;
71606;SDS011;60641;53.556;9.914;2022-12-29T17:38:00;5.80;;;1.40;;
71606;SDS011;60641;53.556;9.914;2022-12-29T17:40:28;8.10;;;1.20;;
71606;SDS011;60641;53.556;9.914;2022-12-29T17:42:56;7.20;;;1.30;;
71606;SDS011;60641;53.556;9.914;2022-12-29T17:45:24;6.50;;;1.20;;
71606;SDS011;60641;53.556;9.914;2022-12-29T17:47:52;7.90;;;1.30;;
71606;SDS011;60641;53.556;9.914;2022-12-29T17:50:23;8.60;;;1.40;;